Time;durP1;ratioP1;P1;durP2;ratioP2;P2;SDS_P1;SDS_P2;PMS_P1;PMS_P2;Temp;Humidity;BMP_temperature;BMP_pressure;BME280_temperature;BME280_humidity;BME280_pressure;Samples;Min_cycle;Max_cycle;Signal;HPM_P1;HPM_P2
2021/10/11 00:01:59;;;;;;;44.08;28.17;;;9.00;99.90;;;;;;4990394;28;20019;-70
2021/10/11 00:04:25;;;;;;;45.75;29.17;;;9.10;99.90;;;;;;4975114;28;20051;-70
2021/10/11 00:06:51;;;;;;;45.42;26.75;;;9.10;99.90;;;;;;4975154;28;20105;-70
2021/10/11 00:09:17;;;;;;;42.28;26.70;;;9.10;99.90;;;;;;4973852;28;20070;-70
2021/10/11 00:11:42;;;;;;;45.65;28.33;;;9.10;99.90;;;;;;4973823;28;20023;-70
2021/10/11 00:14:08;;;;;;;39.13;24.67;;;9.00;99.90;;;;;;4989876;28;20034;-70
2021/10/11 00:16:34;;;;;;;41.05;24.83;;;9.00;99.90;;;;;;4974879;28;20038;-70
2021/10/11 00:19:01;;;;;;;41.65;23.85;;;9.00;99.90;;;;;;4975029;28;20030;-70
2021/10/11 00:21:27;;;;;;;43.95;25.15;;;9.00;99.90;;;;;;4975165;28;20019;-70
2021/10/11 00:23:52;;;;;;;32.80;22.60;;;9.00;99.90;;;;;;4989741;28;20015;-70
2021/10/11 00:26:18;;;;;;;35.83;20.83;;;9.00;99.90;;;;;;4975331;28;20034;-70
2021/10/11 00:28:43;;;;;;;33.13;20.55;;;9.00;99.90;;;;;;4975071;28;20031;-70
2021/10/11 00:31:10;;;;;;;32.85;18.73;;;8.90;99.90;;;;;;4974731;28;20093;-70
2021/10/11 00:33:36;;;;;;;35.33;20.33;;;8.90;99.90;;;;;;4974670;28;20037;-70
2021/10/11 00:36:02;;;;;;;29.92;18.92;;;8.90;99.90;;;;;;4974873;28;20117;-70
2021/10/11 00:38:27;;;;;;;32.72;18.90;;;8.90;99.90;;;;;;4974657;28;20061;-70
2021/10/11 00:40:54;;;;;;;32.85;19.13;;;8.80;99.90;;;;;;4974583;28;20030;-70
2021/10/11 00:43:19;;;;;;;28.23;17.08;;;8.80;99.90;;;;;;4974601;28;20019;-70
2021/10/11 00:45:45;;;;;;;35.97;17.60;;;8.80;99.90;;;;;;4989412;28;20085;-70
2021/10/11 00:48:10;;;;;;;37.85;15.95;;;8.90;99.90;;;;;;4974750;28;20168;-70
2021/10/11 00:50:36;;;;;;;51.85;16.75;;;8.90;99.90;;;;;;4974783;28;20034;-70
2021/10/11 00:53:02;;;;;;;31.48;14.63;;;9.00;99.90;;;;;;4973180;28;20023;-70
2021/10/11 00:55:28;;;;;;;30.50;13.43;;;9.10;99.90;;;;;;4974326;28;20402;-70
2021/10/11 00:57:54;;;;;;;27.40;14.15;;;9.10;99.90;;;;;;4974819;28;20023;-70
2021/10/11 01:00:19;;;;;;;27.23;11.68;;;9.00;99.90;;;;;;4989335;28;20029;-70
2021/10/11 01:02:45;;;;;;;28.48;12.75;;;8.90;99.90;;;;;;4974632;28;20035;-70
2021/10/11 01:05:10;;;;;;;22.25;10.68;;;8.90;99.90;;;;;;4974289;28;20031;-70
2021/10/11 01:07:36;;;;;;;28.55;11.90;;;8.80;99.90;;;;;;4974339;28;20102;-70
2021/10/11 01:10:03;;;;;;;25.17;10.55;;;8.80;99.90;;;;;;4974331;28;20035;-70
2021/10/11 01:12:29;;;;;;;25.33;9.40;;;8.80;99.90;;;;;;4989207;28;20027;-70
2021/10/11 01:14:54;;;;;;;27.48;9.82;;;8.80;99.90;;;;;;4989046;28;20105;-70
2021/10/11 01:17:20;;;;;;;28.98;9.20;;;8.90;99.90;;;;;;4974232;28;20019;-70
2021/10/11 01:19:50;;;;;;;33.10;8.35;;;8.90;99.90;;;;;;4974243;28;20033;-70
2021/10/11 01:22:19;;;;;;;22.55;7.88;;;9.00;99.90;;;;;;4974164;28;20019;-70
2021/10/11 01:24:46;;;;;;;29.00;7.65;;;9.10;99.90;;;;;;4989046;28;20038;-70
2021/10/11 01:27:11;;;;;;;29.08;7.75;;;9.20;99.90;;;;;;4974159;28;20056;-70
2021/10/11 01:29:37;;;;;;;26.17;6.68;;;9.30;99.90;;;;;;4972958;28;20417;-70
2021/10/11 01:32:03;;;;;;;43.47;7.93;;;9.40;99.90;;;;;;4975803;28;20023;-70
2021/10/11 01:34:29;;;;;;;29.63;6.70;;;9.50;99.90;;;;;;4978259;28;20026;-70
2021/10/11 01:36:54;;;;;;;30.55;5.82;;;9.70;99.90;;;;;;4977786;28;20390;-70
2021/10/11 01:39:20;;;;;;;33.15;6.28;;;9.70;99.90;;;;;;4977835;28;20129;-70
2021/10/11 01:41:45;;;;;;;24.92;5.43;;;9.70;99.90;;;;;;4977861;28;20419;-70
2021/10/11 01:44:11;;;;;;;34.58;5.65;;;9.70;99.90;;;;;;4992646;28;20109;-70
2021/10/11 01:46:37;;;;;;;35.70;6.88;;;9.70;99.90;;;;;;4978246;28;20493;-70
2021/10/11 01:49:03;;;;;;;21.23;5.00;;;9.80;99.90;;;;;;4977703;28;20054;-70
2021/10/11 01:51:29;;;;;;;34.85;5.30;;;9.80;99.90;;;;;;4977603;28;20482;-70
2021/10/11 01:53:55;;;;;;;28.20;4.20;;;9.70;99.90;;;;;;4977385;28;20035;-70
2021/10/11 01:56:20;;;;;;;23.67;4.88;;;9.80;99.90;;;;;;4976804;28;20033;-70
2021/10/11 01:58:46;;;;;;;22.45;5.80;;;9.80;99.90;;;;;;4977821;28;20019;-70
2021/10/11 02:01:12;;;;;;;27.70;5.90;;;9.80;99.90;;;;;;4977472;28;20449;-70
2021/10/11 02:03:37;;;;;;;22.30;5.05;;;9.80;99.90;;;;;;4977366;28;20495;-70
2021/10/11 02:06:03;;;;;;;26.55;5.28;;;9.80;99.90;;;;;;4992319;28;20030;-70
2021/10/11 02:08:28;;;;;;;29.70;4.55;;;9.80;99.90;;;;;;4976117;28;20031;-70
2021/10/11 02:10:54;;;;;;;24.15;5.50;;;9.70;99.90;;;;;;4992249;28;20027;-70
2021/10/11 02:13:20;;;;;;;24.58;4.80;;;9.70;99.90;;;;;;4977771;28;20056;-70
2021/10/11 02:15:45;;;;;;;26.00;5.15;;;9.70;99.90;;;;;;4977083;28;20031;-70
2021/10/11 02:18:11;;;;;;;17.65;4.78;;;9.70;99.90;;;;;;4975917;28;20030;-70
2021/10/11 02:20:37;;;;;;;14.07;3.92;;;9.60;99.90;;;;;;4977091;28;20023;-70
2021/10/11 02:23:03;;;;;;;18.10;4.15;;;9.70;99.90;;;;;;4977285;28;20110;-70
2021/10/11 02:25:29;;;;;;;33.90;4.82;;;9.60;99.90;;;;;;4976999;28;20090;-70
2021/10/11 02:27:54;;;;;;;17.75;3.95;;;9.60;99.90;;;;;;4975755;28;20035;-70
2021/10/11 02:30:20;;;;;;;16.00;3.60;;;9.50;99.90;;;;;;4975726;28;20085;-70
2021/10/11 02:32:46;;;;;;;12.55;3.40;;;9.50;99.90;;;;;;4976885;28;20026;-70
2021/10/11 02:35:13;;;;;;;28.00;4.45;;;9.50;99.90;;;;;;4976820;28;20438;-70
2021/10/11 02:37:38;;;;;;;17.17;3.33;;;9.40;99.90;;;;;;4976800;28;20018;-70
2021/10/11 02:40:05;;;;;;;10.00;2.88;;;9.40;99.90;;;;;;4975753;28;20074;-70
2021/10/11 02:42:30;;;;;;;15.73;4.22;;;9.40;99.90;;;;;;4975659;28;20110;-70
2021/10/11 02:44:56;;;;;;;16.98;4.05;;;9.30;99.90;;;;;;4976597;28;20122;-70
2021/10/11 02:47:21;;;;;;;16.10;3.38;;;9.30;99.90;;;;;;4991573;28;20030;-70
2021/10/11 02:49:47;;;;;;;28.55;4.18;;;9.20;99.90;;;;;;4976609;28;20414;-70
2021/10/11 02:52:12;;;;;;;17.88;3.78;;;9.20;99.90;;;;;;4991480;28;20074;-70
2021/10/11 02:54:38;;;;;;;17.45;3.58;;;9.10;99.90;;;;;;4976439;28;20049;-70
2021/10/11 02:57:05;;;;;;;15.13;3.38;;;9.00;99.90;;;;;;4991429;28;20019;-70
2021/10/11 02:59:31;;;;;;;16.73;3.42;;;9.00;99.90;;;;;;4976437;28;20025;-70
2021/10/11 03:01:56;;;;;;;25.40;4.50;;;9.00;99.90;;;;;;4976637;28;20022;-70
2021/10/11 03:04:22;;;;;;;31.27;4.90;;;9.00;99.90;;;;;;4976442;28;20482;-70
2021/10/11 03:06:47;;;;;;;20.50;3.47;;;9.00;99.90;;;;;;4991152;28;20022;-70
2021/10/11 03:09:13;;;;;;;21.48;3.78;;;9.10;99.90;;;;;;4976812;28;20038;-70
2021/10/11 03:11:38;;;;;;;29.23;4.18;;;9.10;99.90;;;;;;4976171;28;20027;-70
2021/10/11 03:14:04;;;;;;;19.98;3.85;;;9.00;99.90;;;;;;4976040;28;20430;-70
2021/10/11 03:16:30;;;;;;;20.90;3.38;;;9.10;99.90;;;;;;4975973;28;20050;-70
2021/10/11 03:18:55;;;;;;;16.48;3.42;;;9.10;99.90;;;;;;4976055;28;20065;-70
2021/10/11 03:21:21;;;;;;;22.60;4.50;;;8.90;99.90;;;;;;4976254;28;20034;-70
2021/10/11 03:23:50;;;;;;;15.52;4.55;;;8.80;99.90;;;;;;4975884;28;20023;-70
2021/10/11 03:26:17;;;;;;;14.95;3.42;;;8.70;99.90;;;;;;4990853;28;20027;-70
2021/10/11 03:28:43;;;;;;;14.73;2.60;;;8.40;99.90;;;;;;4974575;28;20069;-70
2021/10/11 03:31:09;;;;;;;18.75;3.88;;;8.20;99.90;;;;;;4976062;28;20469;-70
2021/10/11 03:33:34;;;;;;;20.33;3.13;;;8.00;99.90;;;;;;4975667;28;20117;-70
2021/10/11 03:36:00;;;;;;;13.75;3.17;;;7.80;99.90;;;;;;4975903;28;20101;-70
2021/10/11 03:38:26;;;;;;;12.68;3.10;;;7.70;99.90;;;;;;4975672;28;20059;-70
2021/10/11 03:40:52;;;;;;;18.27;4.00;;;7.60;99.90;;;;;;4975612;28;20030;-70
2021/10/11 03:43:17;;;;;;;22.20;3.72;;;7.60;99.90;;;;;;4975574;28;20023;-70
2021/10/11 03:45:43;;;;;;;17.25;3.17;;;7.70;99.90;;;;;;4975775;28;20034;-70
2021/10/11 03:48:09;;;;;;;11.35;2.85;;;7.60;99.90;;;;;;4975772;28;20081;-70
2021/10/11 03:50:34;;;;;;;17.73;3.15;;;7.60;99.90;;;;;;4975495;28;20371;-70
2021/10/11 03:53:00;;;;;;;20.20;3.13;;;7.60;99.90;;;;;;4975409;28;20074;-70
2021/10/11 03:55:25;;;;;;;22.60;3.63;;;7.60;99.90;;;;;;4974631;28;20039;-70
2021/10/11 03:57:51;;;;;;;25.40;3.30;;;7.70;99.90;;;;;;4974090;28;20022;-70
2021/10/11 04:00:16;;;;;;;27.08;3.58;;;7.80;99.90;;;;;;4975362;28;20027;-69
2021/10/11 04:02:42;;;;;;;16.98;2.72;;;7.80;99.90;;;;;;4975782;28;20065;-70
2021/10/11 04:05:08;;;;;;;22.83;3.50;;;7.80;99.90;;;;;;4975666;28;20058;-69
2021/10/11 04:07:34;;;;;;;23.42;4.53;;;7.90;99.90;;;;;;4990107;28;20059;-69
2021/10/11 04:10:03;;;;;;;23.02;4.57;;;8.00;99.90;;;;;;4973865;28;20031;-69
2021/10/11 04:12:36;;;;;;;27.25;3.70;;;8.20;99.90;;;;;;4975349;28;20105;-70
2021/10/11 04:15:05;;;;;;;32.50;5.05;;;8.40;99.90;;;;;;4973660;28;20467;-69
2021/10/11 04:17:30;;;;;;;36.03;4.07;;;8.50;99.90;;;;;;4973662;28;20023;-70
2021/10/11 04:19:56;;;;;;;27.48;3.92;;;8.70;99.90;;;;;;4989860;28;20022;-70
2021/10/11 04:22:22;;;;;;;35.85;4.15;;;8.90;99.90;;;;;;4975182;28;20023;-70
2021/10/11 04:24:47;;;;;;;28.98;4.57;;;9.00;99.90;;;;;;4989711;28;20138;-69
2021/10/11 04:27:13;;;;;;;27.80;5.00;;;9.00;99.90;;;;;;4973568;28;20026;-69
2021/10/11 04:29:38;;;;;;;44.45;4.22;;;9.10;99.90;;;;;;4974806;28;20029;-69
2021/10/11 04:32:05;;;;;;;28.05;3.35;;;9.00;99.90;;;;;;4973541;28;20031;-70
2021/10/11 04:34:31;;;;;;;29.02;3.60;;;9.00;99.90;;;;;;4973398;28;20049;-69
2021/10/11 04:36:57;;;;;;;26.60;3.45;;;9.00;99.90;;;;;;4974628;28;20394;-69
2021/10/11 04:39:22;;;;;;;24.77;3.55;;;8.90;99.90;;;;;;4974957;28;20027;-70
2021/10/11 04:41:48;;;;;;;38.53;3.70;;;8.80;99.90;;;;;;4974911;28;20050;-70
2021/10/11 04:44:13;;;;;;;21.35;3.10;;;8.70;99.90;;;;;;4974575;28;20386;-70
2021/10/11 04:46:39;;;;;;;13.50;2.58;;;8.50;99.90;;;;;;4973355;28;20045;-70
2021/10/11 04:49:05;;;;;;;12.35;2.13;;;8.30;99.90;;;;;;4973311;28;20402;-70
2021/10/11 04:51:30;;;;;;;18.45;2.55;;;8.10;99.90;;;;;;4974521;28;20022;-70
2021/10/11 04:53:56;;;;;;;19.80;2.58;;;7.90;99.90;;;;;;4973059;28;20033;-70
2021/10/11 04:56:21;;;;;;;13.52;2.25;;;7.80;99.90;;;;;;4989343;28;20031;-70
2021/10/11 04:58:47;;;;;;;8.68;2.22;;;7.70;99.90;;;;;;4974467;28;20023;-70
2021/10/11 05:01:13;;;;;;;11.70;2.67;;;7.50;99.90;;;;;;4974780;28;20482;-70
2021/10/11 05:03:38;;;;;;;8.00;1.70;;;7.40;99.90;;;;;;4974626;28;20475;-70
2021/10/11 05:06:04;;;;;;;9.23;1.85;;;7.30;99.90;;;;;;4989437;28;20062;-70
2021/10/11 05:08:30;;;;;;;9.30;1.83;;;7.20;99.90;;;;;;4993418;28;20486;-70
2021/10/11 05:10:56;;;;;;;21.60;2.30;;;7.10;99.90;;;;;;4978383;28;20027;-70
2021/10/11 05:13:22;;;;;;;11.30;1.70;;;7.00;99.90;;;;;;4978348;28;20031;-70
2021/10/11 05:15:47;;;;;;;15.77;2.60;;;6.90;99.90;;;;;;4978688;28;20030;-70
2021/10/11 05:18:13;;;;;;;12.65;2.20;;;6.70;99.90;;;;;;4976980;28;20081;-70
2021/10/11 05:20:45;;;;;;;12.15;3.15;;;6.70;99.90;;;;;;4978193;28;20027;-70
2021/10/11 05:23:10;;;;;;;15.35;2.90;;;6.60;99.90;;;;;;4976966;28;20037;-70
2021/10/11 05:25:36;;;;;;;13.20;2.10;;;6.50;99.90;;;;;;4992987;28;20031;-70
2021/10/11 05:28:01;;;;;;;11.65;2.20;;;6.40;99.90;;;;;;4978069;28;20027;-70
2021/10/11 05:30:27;;;;;;;11.52;2.45;;;6.40;99.90;;;;;;4976751;28;20037;-69
2021/10/11 05:32:53;;;;;;;12.60;2.45;;;6.40;99.90;;;;;;4978005;28;20062;-70
2021/10/11 05:35:18;;;;;;;19.40;2.78;;;6.30;99.90;;;;;;4976524;28;20030;-70
2021/10/11 05:37:44;;;;;;;17.77;2.97;;;6.40;99.90;;;;;;4977941;28;20026;-70
2021/10/11 05:40:10;;;;;;;14.52;2.65;;;6.50;99.90;;;;;;4992864;28;20095;-70
2021/10/11 05:42:35;;;;;;;17.33;2.97;;;6.60;99.90;;;;;;4977834;28;20053;-70
2021/10/11 05:45:01;;;;;;;16.55;3.13;;;6.60;99.90;;;;;;4976476;28;20077;-70
2021/10/11 05:47:27;;;;;;;16.85;3.28;;;6.70;99.90;;;;;;4978028;28;20521;-70
2021/10/11 05:49:53;;;;;;;45.10;3.67;;;6.90;99.90;;;;;;4977975;28;20035;-70
2021/10/11 05:52:18;;;;;;;18.27;2.38;;;7.00;99.90;;;;;;4977636;28;20034;-70
2021/10/11 05:54:43;;;;;;;28.77;3.28;;;7.10;99.90;;;;;;5006976;23;20026;-71
2021/10/11 05:57:09;;;;;;;31.80;3.80;;;7.30;99.90;;;;;;4976311;28;20039;-71
2021/10/11 05:59:35;;;;;;;21.75;3.33;;;7.40;99.90;;;;;;4977687;28;20030;-71
2021/10/11 06:02:00;;;;;;;28.60;4.45;;;7.60;99.90;;;;;;4992493;28;20113;-71
2021/10/11 06:04:26;;;;;;;34.55;3.58;;;7.90;99.90;;;;;;4977377;28;20045;-71
2021/10/11 06:06:51;;;;;;;29.27;3.65;;;8.10;99.90;;;;;;4977648;28;20391;-71
2021/10/11 06:09:18;;;;;;;36.95;4.40;;;8.20;99.90;;;;;;4977341;28;20026;-71
2021/10/11 06:11:45;;;;;;;37.25;3.50;;;8.30;99.90;;;;;;4977619;28;20030;-71
2021/10/11 06:14:10;;;;;;;37.55;3.83;;;8.40;99.90;;;;;;4992241;28;20474;-71
2021/10/11 06:16:36;;;;;;;39.55;3.92;;;8.60;99.90;;;;;;4977609;28;20030;-71
2021/10/11 06:19:02;;;;;;;30.73;4.10;;;8.60;99.90;;;;;;4976753;28;20031;-71
2021/10/11 06:21:27;;;;;;;26.80;3.28;;;8.60;99.90;;;;;;4977171;28;20027;-71
2021/10/11 06:23:54;;;;;;;21.73;2.67;;;8.80;99.90;;;;;;4977177;28;20066;-71
2021/10/11 06:26:20;;;;;;;31.17;3.58;;;8.90;99.90;;;;;;4977252;28;20018;-71
2021/10/11 06:28:46;;;;;;;26.73;3.58;;;8.90;99.90;;;;;;4977014;28;20061;-71
2021/10/11 06:31:11;;;;;;;34.38;4.32;;;9.00;99.90;;;;;;4976950;28;20031;-71
2021/10/11 06:33:37;;;;;;;29.02;3.60;;;9.10;99.90;;;;;;4977183;28;20081;-71
2021/10/11 06:36:02;;;;;;;31.95;3.50;;;9.30;99.90;;;;;;4976969;28;20030;-71
2021/10/11 06:38:28;;;;;;;28.33;3.50;;;9.50;99.90;;;;;;4977109;28;20102;-71
2021/10/11 06:40:53;;;;;;;37.08;3.45;;;9.50;99.90;;;;;;4976771;28;20431;-71
2021/10/11 06:43:19;;;;;;;26.50;3.33;;;9.60;99.90;;;;;;4991678;28;20022;-71
2021/10/11 06:45:45;;;;;;;41.33;4.60;;;9.70;99.90;;;;;;4976648;28;20157;-71
2021/10/11 06:48:10;;;;;;;38.30;3.42;;;9.70;99.90;;;;;;4991590;28;20022;-71
2021/10/11 06:50:36;;;;;;;28.73;3.25;;;9.70;99.90;;;;;;4976658;28;20035;-71
2021/10/11 06:53:02;;;;;;;28.77;3.25;;;9.80;99.90;;;;;;4991534;28;20029;-71
2021/10/11 06:55:28;;;;;;;20.25;2.83;;;9.70;99.90;;;;;;4976276;28;20105;-71
2021/10/11 06:57:53;;;;;;;20.92;2.58;;;9.70;99.90;;;;;;4991345;28;20026;-71
2021/10/11 07:00:19;;;;;;;30.48;2.72;;;9.80;99.90;;;;;;4976427;28;20019;-71
2021/10/11 07:02:44;;;;;;;19.75;2.72;;;9.80;99.90;;;;;;4976389;28;20054;-71
2021/10/11 07:05:11;;;;;;;22.60;3.83;;;9.80;99.90;;;;;;4975030;28;20022;-71
2021/10/11 07:07:39;;;;;;;20.33;2.35;;;9.90;99.90;;;;;;4976547;28;20023;-71
2021/10/11 07:10:05;;;;;;;22.83;2.58;;;10.00;99.90;;;;;;4976277;28;20023;-71
2021/10/11 07:12:31;;;;;;;15.15;2.33;;;10.10;99.90;;;;;;4976475;28;20029;-71
2021/10/11 07:14:57;;;;;;;22.48;3.20;;;10.20;99.90;;;;;;4976043;28;20027;-71
2021/10/11 07:17:22;;;;;;;11.68;2.13;;;10.30;99.90;;;;;;4991130;28;20423;-71
2021/10/11 07:19:48;;;;;;;16.35;3.08;;;10.50;99.90;;;;;;4976624;28;20039;-71
2021/10/11 07:22:14;;;;;;;34.80;3.10;;;10.60;99.90;;;;;;4976266;28;20066;-71
2021/10/11 07:24:40;;;;;;;38.25;4.32;;;10.80;99.90;;;;;;4975916;28;20492;-71
2021/10/11 07:27:07;;;;;;;14.95;3.03;;;10.90;99.90;;;;;;4975931;28;20533;-71
2021/10/11 07:29:33;;;;;;;18.15;2.50;;;11.00;99.90;;;;;;4975636;28;20033;-71
2021/10/11 07:31:58;;;;;;;21.60;2.33;;;11.20;99.90;;;;;;4976174;28;20023;-71
2021/10/11 07:34:25;;;;;;;20.15;3.45;;;11.30;99.90;;;;;;4975762;28;20031;-71
2021/10/11 07:36:50;;;;;;;13.55;1.90;;;11.40;99.90;;;;;;4975749;28;20474;-71
2021/10/11 07:39:16;;;;;;;18.98;2.75;;;11.60;99.90;;;;;;4975736;28;20074;-71
2021/10/11 07:41:41;;;;;;;20.35;2.70;;;11.70;99.90;;;;;;4975913;28;20019;-71
2021/10/11 07:44:09;;;;;;;18.52;3.78;;;11.80;99.90;;;;;;4975641;28;20074;-71
2021/10/11 07:46:34;;;;;;;19.00;3.25;;;11.90;99.90;;;;;;4974285;28;20058;-71
2021/10/11 07:49:00;;;;;;;11.57;2.50;;;12.00;99.90;;;;;;4975808;28;20066;-71
2021/10/11 07:51:25;;;;;;;14.13;2.50;;;12.20;99.90;;;;;;4975491;28;20027;-71
2021/10/11 07:53:51;;;;;;;18.65;3.13;;;12.20;99.90;;;;;;4975989;28;20129;-71
2021/10/11 07:56:16;;;;;;;26.10;3.85;;;12.50;99.90;;;;;;4975248;28;20039;-71
2021/10/11 07:58:42;;;;;;;14.13;2.95;;;12.60;99.90;;;;;;4975356;28;20027;-71
2021/10/11 08:01:07;;;;;;;18.95;2.50;;;12.80;99.90;;;;;;4975333;28;20192;-71
2021/10/11 08:03:33;;;;;;;19.90;2.40;;;13.10;99.90;;;;;;4975550;28;20022;-71
2021/10/11 08:06:03;;;;;;;28.98;3.25;;;13.10;99.90;;;;;;4975166;28;20488;-71
2021/10/11 08:08:30;;;;;;;16.73;2.05;;;13.00;99.90;;;;;;4975505;28;20038;-71
2021/10/11 08:10:55;;;;;;;16.08;2.45;;;12.90;99.90;;;;;;4974003;28;20027;-71
2021/10/11 08:13:22;;;;;;;18.20;2.80;;;12.90;99.90;;;;;;4975104;28;20421;-71
2021/10/11 08:15:48;;;;;;;19.38;3.50;;;12.90;99.90;;;;;;4975102;28;20101;-72
2021/10/11 08:18:13;;;;;;;17.73;3.42;;;12.90;99.90;;;;;;4975291;28;20470;-71
2021/10/11 08:20:41;;;;;;;18.45;2.67;;;13.00;99.90;;;;;;4975180;28;20042;-71
2021/10/11 08:23:09;;;;;;;17.98;2.95;;;13.20;99.90;;;;;;4989926;28;20570;-71
2021/10/11 08:25:34;;;;;;;21.95;3.10;;;13.30;99.90;;;;;;4975112;28;20114;-71
2021/10/11 08:28:00;;;;;;;15.43;2.25;;;13.40;99.90;;;;;;4975076;28;20066;-72
2021/10/11 08:30:25;;;;;;;16.17;2.35;;;13.60;99.90;;;;;;4974843;28;20034;-71
2021/10/11 08:32:51;;;;;;;14.18;2.33;;;13.70;99.90;;;;;;4974788;28;20027;-72
2021/10/11 08:35:16;;;;;;;13.05;2.22;;;13.80;99.90;;;;;;4973378;28;20037;-71
2021/10/11 08:37:42;;;;;;;13.10;2.40;;;13.90;99.90;;;;;;4974958;28;20099;-71
2021/10/11 08:40:08;;;;;;;15.02;2.42;;;13.90;99.90;;;;;;4974583;28;20030;-72
2021/10/11 08:42:34;;;;;;;18.45;4.25;;;13.90;99.90;;;;;;4974925;28;20023;-71
2021/10/11 08:45:00;;;;;;;15.68;2.67;;;13.90;99.90;;;;;;4989545;28;20026;-72
2021/10/11 08:47:26;;;;;;;21.77;3.42;;;13.90;99.90;;;;;;4974617;28;20394;-72
2021/10/11 08:49:51;;;;;;;18.23;2.53;;;14.00;99.90;;;;;;4974878;28;20470;-71
2021/10/11 08:52:22;;;;;;;19.80;3.30;;;14.00;99.90;;;;;;4974838;28;20058;-71
2021/10/11 08:54:48;;;;;;;20.60;3.38;;;14.10;99.90;;;;;;4989254;28;20027;-71
2021/10/11 08:57:24;;;;;;;16.25;2.65;;;14.10;99.90;;;;;;4974739;28;20034;-72
2021/10/11 08:59:51;;;;;;;14.23;2.30;;;14.10;99.90;;;;;;4974412;28;20109;-71
2021/10/11 09:02:20;;;;;;;26.33;3.17;;;14.10;99.90;;;;;;4974656;28;20494;-71
2021/10/11 09:04:52;;;;;;;18.85;2.88;;;14.10;99.90;;;;;;4974637;28;20023;-72
2021/10/11 09:07:22;;;;;;;26.90;3.20;;;14.10;99.90;;;;;;4974733;28;20027;-72
2021/10/11 09:09:48;;;;;;;17.00;3.28;;;14.10;99.90;;;;;;4974701;28;20483;-72
2021/10/11 09:12:19;;;;;;;22.67;3.97;;;14.10;99.90;;;;;;4974304;28;20034;-72
2021/10/11 09:14:52;;;;;;;19.90;3.47;;;14.10;99.90;;;;;;4973085;28;20035;-71
2021/10/11 09:17:29;;;;;;;30.58;4.70;;;14.20;99.90;;;;;;4974839;28;20482;-72
2021/10/11 09:19:58;;;;;;;14.93;3.35;;;14.20;99.90;;;;;;4974617;28;20034;-72
2021/10/11 09:22:34;;;;;;;15.55;3.70;;;14.30;99.90;;;;;;4974259;28;20077;-72
2021/10/11 09:25:00;;;;;;;20.77;4.00;;;14.30;99.90;;;;;;4974184;28;20529;-72
2021/10/11 09:27:26;;;;;;;26.77;3.40;;;14.40;99.90;;;;;;4974222;28;20031;-72
2021/10/11 09:29:52;;;;;;;14.13;2.17;;;14.40;99.90;;;;;;4974185;28;20027;-71
2021/10/11 09:32:17;;;;;;;23.65;3.30;;;14.60;99.90;;;;;;4974169;28;20031;-71
2021/10/11 09:34:43;;;;;;;14.20;2.83;;;14.70;99.90;;;;;;4974300;28;20034;-72
2021/10/11 09:37:11;;;;;;;19.58;2.88;;;15.10;99.90;;;;;;4974027;28;20034;-72
2021/10/11 09:39:39;;;;;;;24.23;3.42;;;15.20;99.90;;;;;;4974384;28;20074;-72
2021/10/11 09:42:07;;;;;;;18.85;3.25;;;15.00;99.90;;;;;;4974095;28;20019;-72
2021/10/11 09:44:33;;;;;;;24.60;4.80;;;14.60;99.90;;;;;;4974015;28;20453;-71
2021/10/11 09:47:09;;;;;;;22.20;3.40;;;14.50;99.90;;;;;;4974047;28;20114;-71
2021/10/11 09:49:35;;;;;;;24.90;3.50;;;14.40;99.90;;;;;;4974349;28;20161;-72
2021/10/11 09:52:01;;;;;;;22.58;3.15;;;14.10;99.90;;;;;;4974287;28;20434;-71
2021/10/11 09:54:27;;;;;;;20.15;3.10;;;13.90;99.90;;;;;;4977804;28;20047;-72
2021/10/11 09:56:52;;;;;;;16.90;2.72;;;13.60;99.90;;;;;;4977422;28;20050;-72
2021/10/11 09:59:18;;;;;;;18.42;3.53;;;13.40;99.90;;;;;;4992517;28;20023;-71
2021/10/11 10:01:46;;;;;;;24.08;3.42;;;13.40;99.90;;;;;;4992512;28;20058;-71
2021/10/11 10:04:22;;;;;;;11.00;3.15;;;13.70;99.90;;;;;;4977525;28;20474;-71
2021/10/11 10:06:50;;;;;;;20.83;3.40;;;14.10;99.90;;;;;;4977783;28;20129;-72
2021/10/11 10:09:17;;;;;;;19.73;2.47;;;14.30;99.90;;;;;;4978182;28;20374;-72
2021/10/11 10:11:44;;;;;;;22.70;2.63;;;14.40;99.90;;;;;;4977370;28;20066;-72
2021/10/11 10:14:38;;;;;;;18.73;3.65;;;14.60;99.90;;;;;;4977603;28;20077;-72
2021/10/11 10:17:04;;;;;;;16.95;2.50;;;14.60;99.90;;;;;;4972767;28;20053;-72
2021/10/11 10:19:38;;;;;;;19.33;3.17;;;14.70;99.90;;;;;;4977788;28;20381;-72
2021/10/11 10:22:09;;;;;;;18.58;2.70;;;14.90;99.90;;;;;;4977179;28;20034;-72
2021/10/11 10:24:35;;;;;;;21.42;2.53;;;14.90;99.90;;;;;;4977297;28;20058;-71
2021/10/11 10:27:06;;;;;;;21.20;2.50;;;15.00;99.90;;;;;;4977077;28;20065;-71
2021/10/11 10:29:50;;;;;;;22.80;3.13;;;15.20;99.90;;;;;;4977354;28;20019;-72
2021/10/11 10:32:18;;;;;;;10.68;3.30;;;15.30;99.90;;;;;;4977025;28;20027;-72
2021/10/11 10:34:59;;;;;;;15.70;2.95;;;15.30;99.90;;;;;;4976863;28;20030;-72
2021/10/11 10:37:36;;;;;;;24.02;3.90;;;15.40;99.90;;;;;;4977176;28;20466;-72
2021/10/11 10:40:10;;;;;;;17.20;2.55;;;15.60;99.90;;;;;;4976881;28;20019;-72
2021/10/11 10:42:36;;;;;;;22.02;3.45;;;15.80;99.90;;;;;;4976738;28;20073;-72
2021/10/11 10:45:03;;;;;;;13.68;2.78;;;15.90;99.90;;;;;;4976683;28;20050;-71
2021/10/11 10:47:31;;;;;;;15.07;2.58;;;15.30;99.90;;;;;;4976705;28;20487;-71
2021/10/11 10:49:57;;;;;;;16.15;2.40;;;14.20;99.90;;;;;;4976684;28;20042;-71
2021/10/11 10:52:23;;;;;;;19.52;3.47;;;13.50;99.90;;;;;;4976621;28;20023;-71
2021/10/11 10:54:58;;;;;;;20.98;3.80;;;13.20;99.90;;;;;;4976405;28;20049;-71
2021/10/11 10:57:27;;;;;;;23.60;3.90;;;12.90;99.90;;;;;;4976794;28;20093;-71
2021/10/11 10:59:55;;;;;;;15.80;2.47;;;12.60;99.90;;;;;;4975207;28;20475;-71
2021/10/11 11:02:21;;;;;;;15.00;2.03;;;12.50;99.90;;;;;;4976548;28;20039;-71
2021/10/11 11:05:02;;;;;;;11.48;2.22;;;12.40;99.90;;;;;;4975117;28;20507;-71
2021/10/11 11:07:33;;;;;;;20.50;2.95;;;12.40;99.90;;;;;;4976621;28;20105;-71
2021/10/11 11:10:02;;;;;;;23.70;3.03;;;12.70;99.90;;;;;;4976311;28;20097;-71
2021/10/11 11:12:35;;;;;;;21.73;5.00;;;13.10;99.90;;;;;;4976554;28;20019;-71
2021/10/11 11:15:06;;;;;;;14.27;2.35;;;13.50;99.90;;;;;;4991071;28;20074;-71
2021/10/11 11:17:34;;;;;;;14.50;2.67;;;13.90;99.90;;;;;;4976308;28;20026;-71
2021/10/11 11:20:03;;;;;;;15.13;2.92;;;14.30;99.90;;;;;;4991047;28;20023;-71
2021/10/11 11:22:33;;;;;;;15.80;2.85;;;14.50;99.90;;;;;;4976082;28;20027;-71
2021/10/11 11:25:04;;;;;;;10.15;1.92;;;14.50;99.90;;;;;;4975960;28;20035;-71
2021/10/11 11:27:41;;;;;;;13.50;2.03;;;14.40;99.90;;;;;;4976286;28;20023;-71
2021/10/11 11:30:25;;;;;;;11.70;3.45;;;14.30;99.90;;;;;;4975966;28;20034;-72
2021/10/11 11:32:56;;;;;;;7.13;2.13;;;14.20;99.90;;;;;;4976130;28;20062;-71
2021/10/11 11:35:29;;;;;;;17.77;2.72;;;14.20;99.90;;;;;;4975885;28;20026;-71
2021/10/11 11:37:58;;;;;;;16.43;2.50;;;14.30;99.90;;;;;;4976147;28;20089;-72
2021/10/11 11:40:26;;;;;;;12.43;3.10;;;14.50;99.90;;;;;;4975985;28;20027;-71
2021/10/11 11:42:54;;;;;;;9.10;1.48;;;15.00;99.90;;;;;;4975671;28;20023;-72
2021/10/11 11:45:34;;;;;;;17.92;2.63;;;15.30;99.90;;;;;;4975848;28;20437;-72
2021/10/11 11:48:04;;;;;;;11.93;2.33;;;15.40;99.90;;;;;;4975892;28;20053;-72
2021/10/11 11:50:30;;;;;;;15.68;2.55;;;15.30;99.90;;;;;;4975483;28;20479;-71
2021/10/11 11:53:05;;;;;;;24.38;2.17;;;15.20;99.90;;;;;;4975747;28;20042;-72
2021/10/11 11:55:32;;;;;;;9.48;1.40;;;14.80;99.90;;;;;;5062211;23;20347;-70
2021/10/11 11:57:58;;;;;;;13.75;1.83;;;14.60;99.90;;;;;;4975707;28;20030;-70
2021/10/11 12:00:26;;;;;;;13.93;1.92;;;14.40;99.90;;;;;;4975476;28;20026;-70
2021/10/11 12:02:52;;;;;;;16.48;2.30;;;14.00;99.90;;;;;;4975563;28;20027;-70
2021/10/11 12:05:18;;;;;;;17.85;2.08;;;13.60;99.90;;;;;;4990136;28;20442;-70
2021/10/11 12:07:46;;;;;;;11.75;2.17;;;13.80;99.90;;;;;;4975462;28;20019;-70
2021/10/11 12:10:16;;;;;;;9.73;2.47;;;14.10;99.90;;;;;;4975180;28;20077;-70
2021/10/11 12:12:42;;;;;;;13.13;1.73;;;14.20;99.90;;;;;;4975721;28;20359;-70
2021/10/11 12:15:20;;;;;;;8.52;1.85;;;13.70;99.90;;;;;;4974532;28;20023;-70
2021/10/11 12:17:46;;;;;;;9.55;1.05;;;13.30;99.90;;;;;;4975369;28;20105;-70
2021/10/11 12:20:12;;;;;;;10.98;1.70;;;13.30;99.90;;;;;;4975306;28;20479;-70
2021/10/11 12:22:37;;;;;;;4.88;1.30;;;13.50;99.90;;;;;;4975029;28;20029;-70
2021/10/11 12:25:07;;;;;;;16.17;1.20;;;13.70;99.90;;;;;;4974837;28;20110;-70
2021/10/11 12:27:32;;;;;;;13.13;1.85;;;13.80;99.90;;;;;;4974821;28;20089;-70
2021/10/11 12:30:01;;;;;;;8.60;1.75;;;14.50;99.90;;;;;;4975396;28;20483;-71
2021/10/11 12:32:33;;;;;;;7.47;1.58;;;15.40;99.90;;;;;;4974803;28;20475;-71
2021/10/11 12:35:00;;;;;;;5.40;1.30;;;15.70;99.90;;;;;;4974754;28;20030;-71
2021/10/11 12:37:38;;;;;;;8.75;1.73;;;15.50;99.90;;;;;;4975003;28;20039;-71
2021/10/11 12:40:04;;;;;;;8.07;2.17;;;15.30;99.90;;;;;;4975049;28;20102;-71
2021/10/11 12:42:30;;;;;;;10.48;1.90;;;14.90;99.90;;;;;;4974614;28;20105;-71